createdAt,value
2022-08-23T00:02:01.684Z,31.38
2022-08-23T00:04:35.178Z,31.55
2022-08-23T00:07:08.661Z,25.88
2022-08-23T00:09:39.898Z,25.60
2022-08-23T00:12:15.223Z,28.50
2022-08-23T00:14:48.581Z,23.17
2022-08-23T00:17:33.897Z,24.85
2022-08-23T00:20:04.683Z,23.27
2022-08-23T00:22:34.042Z,24.13
2022-08-23T00:25:05.304Z,28.02
2022-08-23T00:27:35.380Z,25.98
2022-08-23T00:30:07.558Z,22.35
2022-08-23T00:32:39.547Z,23.60
2022-08-23T00:35:12.721Z,23.27
2022-08-23T00:38:31.913Z,26.73
2022-08-23T00:40:45.255Z,23.02
2022-08-23T00:43:35.380Z,26.42
2022-08-23T00:46:32.997Z,23.23
2022-08-23T00:49:06.030Z,27.25
2022-08-23T00:51:52.585Z,24.63
2022-08-23T00:54:23.613Z,31.10
2022-08-23T00:56:54.804Z,29.10
2022-08-23T00:59:24.548Z,29.58
2022-08-23T01:01:54.517Z,22.50
2022-08-23T01:04:23.602Z,20.52
2022-08-23T01:07:01.215Z,25.05
2022-08-23T01:09:30.678Z,30.58
2022-08-23T01:12:08.295Z,21.45
2022-08-23T01:14:42.843Z,25.30
2022-08-23T01:17:16.938Z,26.67
2022-08-23T01:20:03.330Z,22.75
2022-08-23T01:22:42.021Z,22.85
2022-08-23T01:25:18.042Z,21.23
2022-08-23T01:27:47.389Z,25.27
2022-08-23T01:30:21.255Z,27.05
2022-08-23T01:32:55.540Z,22.73
2022-08-23T01:35:32.828Z,22.52
2022-08-23T01:38:02.466Z,23.30
2022-08-23T01:40:33.845Z,22.20
2022-08-23T01:45:33.841Z,25.88
2022-08-23T01:48:04.840Z,26.20
2022-08-23T01:50:34.664Z,26.65
2022-08-23T01:53:04.418Z,23.70
2022-08-23T01:55:35.935Z,23.15
2022-08-23T01:58:07.078Z,21.73
2022-08-23T02:00:39.414Z,19.73
2022-08-23T02:03:09.667Z,19.83
2022-08-23T02:05:39.213Z,20.92
2022-08-23T02:08:29.490Z,21.58
2022-08-23T02:11:02.027Z,24.15
2022-08-23T02:13:31.566Z,20.50
2022-08-23T02:16:01.244Z,23.20
2022-08-23T02:18:31.812Z,21.37
2022-08-23T02:21:00.920Z,21.63
2022-08-23T02:23:30.537Z,23.35
2022-08-23T02:26:01.360Z,22.75
2022-08-23T02:31:00.132Z,19.98
2022-08-23T02:33:29.664Z,25.63
2022-08-23T02:35:58.596Z,19.95
2022-08-23T02:38:28.069Z,20.85
2022-08-23T02:41:00.977Z,24.67
2022-08-23T02:43:40.914Z,20.45
2022-08-23T02:46:11.352Z,18.63
2022-08-23T02:48:40.888Z,20.25
2022-08-23T02:51:11.069Z,23.08
2022-08-23T02:53:41.753Z,22.40
2022-08-23T02:56:21.653Z,15.77
2022-08-23T02:58:54.950Z,23.65
2022-08-23T03:01:28.806Z,17.88
2022-08-23T03:04:02.640Z,22.55
2022-08-23T03:06:33.036Z,19.23
2022-08-23T03:09:03.751Z,22.30
2022-08-23T03:11:33.138Z,29.80
2022-08-23T03:14:04.560Z,19.70
2022-08-23T03:16:34.182Z,22.85
2022-08-23T03:19:04.124Z,21.45
2022-08-23T03:21:33.278Z,20.55
2022-08-23T03:24:06.855Z,18.10
2022-08-23T03:26:39.100Z,21.73
2022-08-23T03:29:10.206Z,18.45
2022-08-23T03:31:56.681Z,18.30
2022-08-23T03:34:27.501Z,18.27
2022-08-23T03:36:57.654Z,19.08
2022-08-23T03:39:27.484Z,16.85
2022-08-23T03:41:59.029Z,17.52
2022-08-23T03:44:33.806Z,21.45
2022-08-23T03:47:03.721Z,20.23
2022-08-23T03:49:35.079Z,19.77
2022-08-23T03:52:06.020Z,20.48
2022-08-23T03:54:37.317Z,17.90
2022-08-23T03:57:10.829Z,14.00
2022-08-23T03:59:42.791Z,17.48
2022-08-23T04:02:14.216Z,17.33
2022-08-23T04:04:44.221Z,22.10
2022-08-23T04:07:25.962Z,17.23
2022-08-23T04:09:59.255Z,18.65
2022-08-23T04:12:33.634Z,19.27
2022-08-23T04:15:04.615Z,14.05
2022-08-23T04:17:45.127Z,19.27
2022-08-23T04:20:14.830Z,14.18
2022-08-23T04:22:59.098Z,16.38
2022-08-23T04:25:34.254Z,18.15
2022-08-23T04:28:07.389Z,19.77
2022-08-23T04:30:38.432Z,19.45
2022-08-23T04:33:09.914Z,16.52
2022-08-23T04:35:42.655Z,17.98
2022-08-23T04:38:24.589Z,18.70
2022-08-23T04:41:20.105Z,17.85
2022-08-23T04:43:50.755Z,17.85
2022-08-23T04:46:23.832Z,20.27
2022-08-23T04:48:54.358Z,14.50
2022-08-23T04:51:24.755Z,20.50
2022-08-23T04:53:55.713Z,20.60
2022-08-23T04:56:35.236Z,22.98
2022-08-23T04:59:06.753Z,17.30
2022-08-23T05:01:37.431Z,16.02
2022-08-23T05:04:08.275Z,17.92
2022-08-23T05:06:41.253Z,16.42
2022-08-23T05:09:11.472Z,18.23
2022-08-23T05:11:41.145Z,17.25
2022-08-23T05:14:11.154Z,18.30
2022-08-23T05:16:41.996Z,19.15
2022-08-23T05:19:13.935Z,17.25
2022-08-23T05:21:46.961Z,21.20
2022-08-23T05:24:18.832Z,18.75
2022-08-23T05:26:49.480Z,19.15
2022-08-23T05:29:21.789Z,17.77
2022-08-23T05:31:57.361Z,17.42
2022-08-23T05:34:28.775Z,17.20
2022-08-23T05:37:06.182Z,19.05
2022-08-23T05:42:15.860Z,17.52
2022-08-23T05:44:47.480Z,17.83
2022-08-23T05:47:24.785Z,21.15
2022-08-23T05:50:22.710Z,15.95
2022-08-23T05:52:52.932Z,15.13
2022-08-23T05:55:34.600Z,15.15
2022-08-23T05:58:21.278Z,14.75
2022-08-23T06:00:51.320Z,13.98
2022-08-23T06:03:22.396Z,16.75
2022-08-23T06:05:59.208Z,18.30
2022-08-23T06:08:28.785Z,18.15
2022-08-23T06:11:04.389Z,15.05
2022-08-23T06:13:43.325Z,16.40
2022-08-23T06:16:23.041Z,16.27
2022-08-23T06:18:57.858Z,15.15
2022-08-23T06:21:46.580Z,14.40
2022-08-23T06:24:16.881Z,16.17
2022-08-23T06:27:00.495Z,19.13
2022-08-23T06:29:30.435Z,20.58
2022-08-23T06:32:19.959Z,17.40
2022-08-23T06:35:37.609Z,17.40
2022-08-23T06:38:08.201Z,18.20
2022-08-23T06:41:01.928Z,17.88
2022-08-23T06:43:43.042Z,14.63
2022-08-23T06:46:33.541Z,17.77
2022-08-23T06:49:06.211Z,15.60
2022-08-23T06:51:41.521Z,17.77
2022-08-23T06:54:34.591Z,13.63
2022-08-23T06:57:34.973Z,21.23
2022-08-23T07:00:28.538Z,13.48
2022-08-23T07:03:15.226Z,19.70
2022-08-23T07:06:03.361Z,17.52
2022-08-23T07:08:36.660Z,21.77
2022-08-23T07:11:07.069Z,22.52
2022-08-23T07:13:36.782Z,21.30
2022-08-23T07:16:06.770Z,16.38
2022-08-23T07:18:37.092Z,18.52
2022-08-23T07:21:08.073Z,21.77
2022-08-23T07:23:46.428Z,20.42
2022-08-23T07:26:19.263Z,18.20
2022-08-23T07:28:49.821Z,18.90
2022-08-23T07:31:21.899Z,24.40
2022-08-23T07:33:53.298Z,16.63
2022-08-23T07:36:27.971Z,14.88
2022-08-23T07:39:00.531Z,15.93
2022-08-23T07:41:33.054Z,17.52
2022-08-23T07:44:05.179Z,17.58
2022-08-23T07:49:07.793Z,19.33
2022-08-23T07:51:42.837Z,14.25
2022-08-23T07:54:19.689Z,17.63
2022-08-23T07:57:01.461Z,14.85
2022-08-23T07:59:50.319Z,13.93
2022-08-23T08:02:43.988Z,14.57
2022-08-23T08:05:22.135Z,11.77
2022-08-23T08:07:53.577Z,18.38
2022-08-23T08:10:25.551Z,11.80
2022-08-23T08:12:56.665Z,14.68
2022-08-23T08:15:27.724Z,17.40
2022-08-23T08:18:07.782Z,15.40
2022-08-23T08:20:57.270Z,15.03
2022-08-23T08:23:33.347Z,10.65
2022-08-23T08:26:30.275Z,16.73
2022-08-23T08:29:00.954Z,21.83
2022-08-23T08:31:38.585Z,11.25
2022-08-23T08:34:12.583Z,13.55
2022-08-23T08:36:45.647Z,13.73
2022-08-23T08:39:23.288Z,18.13
2022-08-23T08:42:20.721Z,14.57
2022-08-23T08:44:55.688Z,13.75
2022-08-23T08:47:36.407Z,16.13
2022-08-23T08:50:14.517Z,15.82
2022-08-23T08:52:49.817Z,12.18
2022-08-23T08:55:36.388Z,13.02
2022-08-23T08:58:14.597Z,13.10
2022-08-23T09:00:49.166Z,14.52
2022-08-23T09:03:23.004Z,10.30
2022-08-23T09:05:59.177Z,13.18
2022-08-23T09:08:48.457Z,10.13
2022-08-23T09:11:30.583Z,14.77
2022-08-23T09:14:23.709Z,13.35
2022-08-23T09:16:58.779Z,12.68
2022-08-23T09:19:30.844Z,15.13
2022-08-23T09:22:03.798Z,12.30
2022-08-23T09:24:35.914Z,9.93
2022-08-23T09:27:12.603Z,10.45
2022-08-23T09:29:57.427Z,13.48
2022-08-23T09:32:34.091Z,10.05
2022-08-23T09:35:17.470Z,15.73
2022-08-23T09:38:00.797Z,10.63
2022-08-23T09:40:35.716Z,10.02
2022-08-23T09:43:19.599Z,12.48
2022-08-23T09:46:04.660Z,9.43
2022-08-23T09:48:46.565Z,12.25
2022-08-23T09:51:27.859Z,12.48
2022-08-23T09:54:08.400Z,7.85
2022-08-23T09:56:40.778Z,8.98
2022-08-23T09:59:29.515Z,8.55
2022-08-23T10:02:14.537Z,7.20
2022-08-23T10:05:00.659Z,8.60
2022-08-23T10:07:38.566Z,9.15
2022-08-23T10:10:24.188Z,9.88
2022-08-23T10:12:59.233Z,12.05
2022-08-23T10:15:49.600Z,8.70
2022-08-23T10:18:34.938Z,9.82
2022-08-23T10:21:23.773Z,7.40
2022-08-23T10:24:16.993Z,14.27
2022-08-23T10:27:01.496Z,7.32
2022-08-23T10:29:38.820Z,6.10
2022-08-23T10:32:22.027Z,8.40
2022-08-23T10:35:11.404Z,6.75
2022-08-23T10:37:53.409Z,8.27
2022-08-23T10:40:29.799Z,6.88
2022-08-23T10:43:14.998Z,7.38
2022-08-23T10:45:47.937Z,8.30
2022-08-23T10:48:33.787Z,7.85
2022-08-23T10:51:10.924Z,7.93
2022-08-23T10:53:48.014Z,7.93
2022-08-23T10:56:21.213Z,7.25
2022-08-23T10:59:00.279Z,6.28
2022-08-23T11:01:47.687Z,9.82
2022-08-23T11:04:27.048Z,5.80
2022-08-23T11:07:24.073Z,6.60
2022-08-23T11:09:59.561Z,9.70
2022-08-23T11:12:36.945Z,6.65
2022-08-23T11:15:15.435Z,6.47
2022-08-23T11:18:00.983Z,9.48
2022-08-23T11:21:02.507Z,7.65
2022-08-23T11:23:49.464Z,10.95
2022-08-23T11:27:08.964Z,6.72
2022-08-23T11:29:44.392Z,12.88
2022-08-23T11:32:42.951Z,7.35
2022-08-23T11:35:43.458Z,8.23
2022-08-23T11:38:22.417Z,10.73
2022-08-23T11:41:12.752Z,9.25
2022-08-23T11:43:45.524Z,6.85
2022-08-23T11:46:35.101Z,8.43
2022-08-23T11:52:07.463Z,6.65
2022-08-23T11:54:47.963Z,6.15
2022-08-23T11:57:36.971Z,7.05
2022-08-23T12:00:19.179Z,6.60
2022-08-23T12:03:03.392Z,6.87
2022-08-23T12:06:14.474Z,7.05
2022-08-23T12:08:55.826Z,6.90
2022-08-23T12:11:26.914Z,5.95
2022-08-23T12:14:02.809Z,6.70
2022-08-23T12:16:38.068Z,8.27
2022-08-23T12:19:30.319Z,8.88
2022-08-23T12:22:07.026Z,8.00
2022-08-23T12:24:44.778Z,8.35
2022-08-23T12:27:28.159Z,7.10
2022-08-23T12:30:07.050Z,6.32
2022-08-23T12:32:44.312Z,8.48
2022-08-23T12:35:33.219Z,7.53
2022-08-23T12:38:09.103Z,9.95
2022-08-23T12:40:42.510Z,7.57
2022-08-23T12:43:22.499Z,9.48
2022-08-23T12:45:57.503Z,7.47
2022-08-23T12:48:29.819Z,11.57
2022-08-23T12:51:03.539Z,10.25
2022-08-23T12:53:38.550Z,7.00
2022-08-23T12:56:26.791Z,9.50
2022-08-23T12:59:05.559Z,8.55
2022-08-23T13:01:38.764Z,7.45
2022-08-23T13:04:11.239Z,6.85
2022-08-23T13:06:46.103Z,8.88
2022-08-23T13:09:21.170Z,8.10
2022-08-23T13:11:52.596Z,10.00
2022-08-23T13:14:31.057Z,13.15
2022-08-23T13:17:15.341Z,7.57
2022-08-23T13:19:45.631Z,9.68
2022-08-23T13:22:22.211Z,7.60
2022-08-23T13:25:27.497Z,10.00
2022-08-23T13:27:57.726Z,7.20
2022-08-23T13:30:30.174Z,7.43
2022-08-23T13:33:24.482Z,8.43
2022-08-23T13:36:13.033Z,6.53
2022-08-23T13:38:44.148Z,7.20
2022-08-23T13:41:28.003Z,7.30
2022-08-23T13:44:00.484Z,10.80
2022-08-23T13:46:37.292Z,10.43
2022-08-23T13:49:14.730Z,7.70
2022-08-23T13:51:47.093Z,8.40
2022-08-23T13:54:17.975Z,7.60
2022-08-23T13:56:53.331Z,5.90
2022-08-23T13:59:31.750Z,6.90
2022-08-23T14:02:03.216Z,7.10
2022-08-23T14:04:34.360Z,13.73
2022-08-23T14:07:06.915Z,9.15
2022-08-23T14:09:36.992Z,8.90
2022-08-23T14:12:09.641Z,7.80
2022-08-23T14:14:40.186Z,11.10
2022-08-23T14:17:12.844Z,10.23
2022-08-23T14:22:37.862Z,6.82
2022-08-23T14:25:08.269Z,10.20
2022-08-23T14:27:41.022Z,9.35
2022-08-23T14:30:13.786Z,9.05
2022-08-23T14:32:43.420Z,9.13
2022-08-23T14:35:14.910Z,10.40
2022-08-23T14:40:38.213Z,9.40
2022-08-23T14:43:07.733Z,7.55
2022-08-23T14:45:37.012Z,9.40
2022-08-23T14:48:07.422Z,11.15
2022-08-23T14:50:41.184Z,8.27
2022-08-23T14:53:12.207Z,7.68
2022-08-23T14:55:42.343Z,9.30
2022-08-23T14:58:12.988Z,14.25
2022-08-23T15:00:43.030Z,7.93
2022-08-23T15:03:14.556Z,11.53
2022-08-23T15:05:45.946Z,11.13
2022-08-23T15:08:15.827Z,8.05
2022-08-23T15:12:56.506Z,14.00
2022-08-23T15:13:55.562Z,8.05
2022-08-23T15:16:26.096Z,9.45
2022-08-23T15:18:57.660Z,8.63
2022-08-23T15:21:29.327Z,9.35
2022-08-23T15:23:59.213Z,11.00
2022-08-23T15:26:31.345Z,12.30
2022-08-23T15:29:01.569Z,12.35
2022-08-23T15:31:31.171Z,12.47
2022-08-23T15:34:01.077Z,10.38
2022-08-23T15:36:36.824Z,11.95
2022-08-23T15:39:07.298Z,11.23
2022-08-23T15:41:37.173Z,15.45
2022-08-23T15:44:07.342Z,10.60
2022-08-23T15:46:39.128Z,15.10
2022-08-23T15:49:15.717Z,10.18
2022-08-23T15:51:47.055Z,11.05
2022-08-23T15:54:17.448Z,11.45
2022-08-23T15:56:53.020Z,9.95
2022-08-23T15:59:22.915Z,12.93
2022-08-23T16:01:52.428Z,11.57
2022-08-23T16:04:22.487Z,12.23
2022-08-23T16:06:54.834Z,12.38
2022-08-23T16:09:28.517Z,11.50
2022-08-23T16:12:00.328Z,15.43
2022-08-23T16:14:32.820Z,10.82
2022-08-23T16:17:02.749Z,10.57
2022-08-23T16:19:35.133Z,10.95
2022-08-23T16:22:09.008Z,13.35
2022-08-23T16:24:41.273Z,11.43
2022-08-23T16:27:12.185Z,12.48
2022-08-23T16:29:42.701Z,19.77
2022-08-23T16:32:12.974Z,14.35
2022-08-23T16:34:46.980Z,11.15
2022-08-23T16:37:21.040Z,14.93
2022-08-23T16:39:50.949Z,18.75
2022-08-23T16:42:21.413Z,13.98
2022-08-23T16:44:51.043Z,20.77
2022-08-23T16:47:21.341Z,21.75
2022-08-23T16:49:51.072Z,20.73
2022-08-23T16:52:24.821Z,27.08
2022-08-23T16:55:06.994Z,23.15
2022-08-23T16:57:45.161Z,27.65
2022-08-23T17:00:19.211Z,31.48
2022-08-23T17:02:50.842Z,36.30
2022-08-23T17:05:24.311Z,45.13
2022-08-23T17:07:56.713Z,39.03
2022-08-23T17:10:28.094Z,41.95
2022-08-23T17:12:59.841Z,44.60
2022-08-23T17:15:33.024Z,40.28
2022-08-23T17:18:03.013Z,44.10
2022-08-23T17:20:36.800Z,49.35
2022-08-23T17:23:08.555Z,50.20
2022-08-23T17:25:38.874Z,51.95
2022-08-23T17:28:11.069Z,52.30
2022-08-23T17:30:42.038Z,48.90
2022-08-23T17:33:12.131Z,42.47
2022-08-23T17:35:42.663Z,47.50
2022-08-23T17:38:13.966Z,41.00
2022-08-23T17:40:44.132Z,43.55
2022-08-23T17:43:14.022Z,38.88
2022-08-23T17:45:46.794Z,35.38
2022-08-23T17:48:17.778Z,38.35
2022-08-23T17:50:48.193Z,33.85
2022-08-23T17:53:22.059Z,32.63
2022-08-23T17:55:51.669Z,32.10
2022-08-23T17:58:22.358Z,26.53
2022-08-23T18:00:54.882Z,21.48
2022-08-23T18:03:27.024Z,19.05
2022-08-23T18:05:57.684Z,18.42
2022-08-23T18:08:29.118Z,20.63
2022-08-23T18:10:59.518Z,18.35
2022-08-23T18:13:29.015Z,20.57
2022-08-23T18:15:59.332Z,19.30
2022-08-23T18:18:30.488Z,17.80
2022-08-23T18:20:59.925Z,17.33
2022-08-23T18:23:31.798Z,21.30
2022-08-23T18:26:07.314Z,16.70
2022-08-23T18:28:36.879Z,19.80
2022-08-23T18:31:07.942Z,19.67
2022-08-23T18:33:46.774Z,17.30
2022-08-23T18:36:17.570Z,16.95
2022-08-23T18:38:48.795Z,15.73
2022-08-23T18:43:48.377Z,18.02
2022-08-23T18:46:18.611Z,16.97
2022-08-23T18:48:53.485Z,15.90
2022-08-23T18:51:23.856Z,19.15
2022-08-23T18:53:54.824Z,14.02
2022-08-23T18:56:25.909Z,18.23
2022-08-23T18:58:55.435Z,13.85
2022-08-23T19:01:30.357Z,20.17
2022-08-23T19:04:04.955Z,11.13
2022-08-23T19:06:34.294Z,17.73
2022-08-23T19:09:06.227Z,13.23
2022-08-23T19:11:37.507Z,16.98
2022-08-23T19:14:11.080Z,14.65
2022-08-23T19:16:47.310Z,14.02
2022-08-23T19:19:18.999Z,13.10
2022-08-23T19:21:49.684Z,19.23
2022-08-23T19:24:21.044Z,11.73
2022-08-23T19:27:00.042Z,11.80
2022-08-23T19:29:30.148Z,16.10
2022-08-23T19:31:59.620Z,15.57
2022-08-23T19:34:30.538Z,15.02
2022-08-23T19:37:01.612Z,14.30
2022-08-23T19:39:32.747Z,14.50
2022-08-23T19:42:03.066Z,11.95
2022-08-23T19:44:34.960Z,14.73
2022-08-23T19:47:08.103Z,12.00
2022-08-23T19:49:50.259Z,14.93
2022-08-23T19:52:20.140Z,11.65
2022-08-23T19:54:51.143Z,15.10
2022-08-23T19:57:31.456Z,12.18
2022-08-23T20:00:08.406Z,12.57
2022-08-23T20:02:38.876Z,13.07
2022-08-23T20:05:08.898Z,10.38
2022-08-23T20:07:40.083Z,15.20
2022-08-23T20:12:44.099Z,10.90
2022-08-23T20:15:14.880Z,9.45
2022-08-23T20:17:45.092Z,9.70
2022-08-23T20:20:15.178Z,10.73
2022-08-23T20:23:02.203Z,10.85
2022-08-23T20:25:34.929Z,12.15
2022-08-23T20:28:08.631Z,11.40
2022-08-23T20:30:38.947Z,11.57
2022-08-23T20:33:11.923Z,14.23
2022-08-23T20:35:44.023Z,13.80
2022-08-23T20:38:22.370Z,14.30
2022-08-23T20:41:05.016Z,13.32
2022-08-23T20:43:39.294Z,11.45
2022-08-23T20:48:42.867Z,15.55
2022-08-23T20:51:12.793Z,14.93
2022-08-23T20:53:42.616Z,13.60
2022-08-23T20:56:13.856Z,17.23
2022-08-23T20:58:43.199Z,12.43
2022-08-23T21:01:14.389Z,13.38
2022-08-23T21:06:20.900Z,9.07
2022-08-23T21:08:56.208Z,15.30
2022-08-23T21:11:29.257Z,11.98
2022-08-23T21:13:59.636Z,13.43
2022-08-23T21:16:29.796Z,8.60
2022-08-23T21:19:04.119Z,13.40
2022-08-23T21:21:35.561Z,12.07
2022-08-23T21:24:06.214Z,15.18
2022-08-23T21:26:37.851Z,11.95
2022-08-23T21:29:09.191Z,10.02
2022-08-23T21:34:10.684Z,8.23
2022-08-23T21:36:44.090Z,8.48
2022-08-23T21:39:14.663Z,13.02
2022-08-23T21:41:51.489Z,8.18
2022-08-23T21:44:22.646Z,8.23
2022-08-23T21:46:53.658Z,9.63
2022-08-23T21:49:23.569Z,9.93
2022-08-23T21:51:54.551Z,10.77
2022-08-23T21:54:24.939Z,9.02
2022-08-23T21:56:55.703Z,9.68
2022-08-23T21:59:26.311Z,9.05
2022-08-23T22:01:55.413Z,8.30
2022-08-23T22:04:25.286Z,9.70
2022-08-23T22:06:56.053Z,8.68
2022-08-23T22:09:31.172Z,12.73
2022-08-23T22:12:02.371Z,7.50
2022-08-23T22:14:33.357Z,12.30
2022-08-23T22:17:03.423Z,7.00
2022-08-23T22:19:34.064Z,7.45
2022-08-23T22:22:03.604Z,9.05
2022-08-23T22:24:34.828Z,6.15
2022-08-23T22:27:06.046Z,8.43
2022-08-23T22:29:36.027Z,10.63
2022-08-23T22:32:06.220Z,7.47
2022-08-23T22:34:36.728Z,9.75
2022-08-23T22:37:06.598Z,6.68
2022-08-23T22:39:36.756Z,10.80
2022-08-23T22:42:09.921Z,6.70
2022-08-23T22:44:41.568Z,14.75
2022-08-23T22:47:13.093Z,6.93
2022-08-23T22:49:42.579Z,7.00
2022-08-23T22:52:14.031Z,7.50
2022-08-23T22:54:43.536Z,7.13
2022-08-23T22:57:14.561Z,13.10
2022-08-23T22:59:44.286Z,9.43
2022-08-23T23:02:13.999Z,6.65
2022-08-23T23:04:45.587Z,7.10
2022-08-23T23:07:36.098Z,7.18
2022-08-23T23:10:06.214Z,6.68
2022-08-23T23:12:36.882Z,9.75
2022-08-23T23:15:06.439Z,6.28
2022-08-23T23:17:38.683Z,7.38
2022-08-23T23:20:28.439Z,9.75
2022-08-23T23:22:58.046Z,7.03
2022-08-23T23:25:27.472Z,6.13
2022-08-23T23:27:59.113Z,12.32
2022-08-23T23:30:31.994Z,9.73
2022-08-23T23:33:02.013Z,5.57
2022-08-23T23:35:31.717Z,10.10
2022-08-23T23:38:02.793Z,6.50
2022-08-23T23:40:32.209Z,6.07
2022-08-23T23:43:03.129Z,8.82
2022-08-23T23:45:32.690Z,8.95
2022-08-23T23:48:02.109Z,8.18
2022-08-23T23:50:32.164Z,5.45
2022-08-23T23:53:01.557Z,8.15
2022-08-23T23:55:30.680Z,7.30
2022-08-23T23:57:59.680Z,12.15
